Time;durP1;ratioP1;P1;durP2;ratioP2;P2;SDS_P1;SDS_P2;PMS_P1;PMS_P2;Temp;Humidity;BMP_temperature;BMP_pressure;BME280_temperature;BME280_humidity;BME280_pressure;Samples;Min_cycle;Max_cycle;Signal;HPM_P1;HPM_P2
2023/08/24 00:00:22;;;;;;;12.43;8.80;;;23.20;15.40;;;;;;5028870;28;20470;-66
2023/08/24 00:02:49;;;;;;;12.03;8.43;;;23.20;15.60;;;;;;5026788;28;20854;-66
2023/08/24 00:05:16;;;;;;;12.13;10.77;;;23.20;15.90;;;;;;5029089;28;20490;-66
2023/08/24 00:07:43;;;;;;;12.83;11.47;;;23.00;16.10;;;;;;5029857;28;20486;-66
2023/08/24 00:10:11;;;;;;;13.93;9.97;;;23.00;16.40;;;;;;5027930;28;20493;-66
2023/08/24 00:12:39;;;;;;;18.13;9.80;;;22.90;16.90;;;;;;5025979;28;20542;-66
2023/08/24 00:15:08;;;;;;;12.10;9.67;;;22.80;17.20;;;;;;5028551;28;20822;-66
2023/08/24 00:17:35;;;;;;;11.60;9.80;;;22.70;17.50;;;;;;5027910;28;20494;-66
2023/08/24 00:20:04;;;;;;;13.30;10.37;;;22.60;17.90;;;;;;5027741;28;20467;-65
2023/08/24 00:22:30;;;;;;;12.80;10.23;;;22.60;18.20;;;;;;5025664;28;20966;-66
2023/08/24 00:24:57;;;;;;;12.30;9.97;;;22.50;18.20;;;;;;5028083;28;20487;-65
2023/08/24 00:27:25;;;;;;;15.10;11.33;;;22.50;18.30;;;;;;5026289;28;20490;-66
2023/08/24 00:29:52;;;;;;;11.43;9.67;;;22.50;18.50;;;;;;5029669;28;20911;-66
2023/08/24 00:32:19;;;;;;;11.93;8.67;;;22.50;18.40;;;;;;5027531;28;20481;-66
2023/08/24 00:34:45;;;;;;;13.17;10.37;;;22.50;18.40;;;;;;5026329;28;20471;-66
2023/08/24 00:37:12;;;;;;;13.73;10.07;;;22.50;18.70;;;;;;5028978;28;20494;-66
2023/08/24 00:39:39;;;;;;;12.23;9.40;;;22.50;18.60;;;;;;5025819;28;20533;-65
2023/08/24 00:42:07;;;;;;;12.10;9.70;;;22.50;18.50;;;;;;5027932;28;20982;-65
2023/08/24 00:44:35;;;;;;;10.93;9.50;;;22.50;18.30;;;;;;5027009;28;20467;-66
2023/08/24 00:47:01;;;;;;;10.53;9.00;;;22.50;18.40;;;;;;5027500;28;20482;-66
2023/08/24 00:49:28;;;;;;;13.20;9.50;;;22.50;18.40;;;;;;5027859;28;20509;-65
2023/08/24 00:51:55;;;;;;;19.13;10.40;;;22.40;18.50;;;;;;5028187;28;20842;-66
2023/08/24 00:54:22;;;;;;;13.00;9.07;;;22.40;18.30;;;;;;5025094;28;20462;-65
2023/08/24 00:56:48;;;;;;;12.30;10.20;;;22.50;18.30;;;;;;5026720;28;20486;-65
2023/08/24 00:59:15;;;;;;;11.20;10.00;;;22.50;18.20;;;;;;5027509;28;20466;-65
2023/08/24 01:01:47;;;;;;;11.50;9.63;;;22.50;18.30;;;;;;5024908;28;20467;-65
2023/08/24 01:04:14;;;;;;;15.10;10.53;;;22.40;18.40;;;;;;5026274;28;20466;-65
2023/08/24 01:06:41;;;;;;;13.13;9.57;;;22.40;18.40;;;;;;5023786;28;20501;-65
2023/08/24 01:09:08;;;;;;;12.60;11.30;;;22.40;18.30;;;;;;5027797;28;20573;-65
2023/08/24 01:11:46;;;;;;;12.37;10.10;;;22.40;18.50;;;;;;5026817;28;20841;-65
2023/08/24 01:14:26;;;;;;;13.60;10.23;;;22.40;18.40;;;;;;5025774;28;20459;-66
2023/08/24 01:16:59;;;;;;;13.13;9.97;;;22.30;18.60;;;;;;5025811;28;20493;-65
2023/08/24 01:19:37;;;;;;;12.63;9.57;;;22.30;18.60;;;;;;5027202;28;20467;-66
2023/08/24 01:22:08;;;;;;;13.90;10.43;;;22.30;18.60;;;;;;5026100;28;20489;-66
2023/08/24 01:24:41;;;;;;;12.77;9.77;;;22.30;18.50;;;;;;5026391;28;20459;-65
2023/08/24 01:27:10;;;;;;;13.37;9.63;;;22.30;18.50;;;;;;5026562;28;20580;-65
2023/08/24 01:29:38;;;;;;;11.70;9.33;;;22.30;18.50;;;;;;5025422;28;20515;-65
2023/08/24 01:32:05;;;;;;;11.60;8.80;;;22.30;18.60;;;;;;5023760;28;20903;-65
2023/08/24 01:34:32;;;;;;;12.53;10.50;;;22.30;18.90;;;;;;5023736;28;20459;-65
2023/08/24 01:36:59;;;;;;;11.40;9.63;;;22.30;19.10;;;;;;5026720;28;20489;-65
2023/08/24 01:39:33;;;;;;;11.93;10.50;;;22.20;19.40;;;;;;5026435;28;20467;-66
2023/08/24 01:42:04;;;;;;;11.47;10.27;;;22.20;19.60;;;;;;5025575;28;20979;-66
2023/08/24 01:44:38;;;;;;;12.90;10.33;;;22.20;19.70;;;;;;5025908;28;20470;-66
2023/08/24 01:47:07;;;;;;;12.73;10.50;;;22.20;20.10;;;;;;5023958;28;20877;-68
2023/08/24 01:49:35;;;;;;;16.80;10.77;;;22.10;20.00;;;;;;5023249;28;20459;-66
2023/08/24 01:52:04;;;;;;;13.67;10.50;;;22.10;20.00;;;;;;5025531;28;20497;-66
2023/08/24 01:54:31;;;;;;;11.73;10.23;;;22.10;20.20;;;;;;5022248;28;20467;-66
2023/08/24 01:56:58;;;;;;;11.30;10.10;;;22.10;20.20;;;;;;5021566;28;20555;-65
2023/08/24 01:59:24;;;;;;;13.83;11.50;;;22.10;20.30;;;;;;5025544;28;20475;-66
2023/08/24 02:01:52;;;;;;;11.80;10.60;;;22.10;20.20;;;;;;5022416;28;20840;-65
2023/08/24 02:04:19;;;;;;;11.50;10.33;;;22.10;20.30;;;;;;5022989;28;20470;-66
2023/08/24 02:06:46;;;;;;;11.80;9.67;;;22.10;20.00;;;;;;5023321;28;20499;-66
2023/08/24 02:09:12;;;;;;;12.00;10.80;;;22.10;20.00;;;;;;5024074;28;20470;-65
2023/08/24 02:11:39;;;;;;;13.40;11.60;;;22.10;20.20;;;;;;5023593;28;20834;-66
2023/08/24 02:14:06;;;;;;;14.97;10.53;;;22.10;20.50;;;;;;5021353;28;20475;-65
2023/08/24 02:16:33;;;;;;;13.30;11.60;;;22.00;20.50;;;;;;5026122;28;20482;-66
2023/08/24 02:19:01;;;;;;;12.00;10.60;;;22.00;20.90;;;;;;5025256;28;20470;-66
2023/08/24 02:21:27;;;;;;;11.40;10.30;;;22.00;21.00;;;;;;5024903;28;20471;-66
2023/08/24 02:23:54;;;;;;;13.50;12.13;;;22.00;21.20;;;;;;5025403;28;20474;-67
2023/08/24 02:26:21;;;;;;;12.83;10.90;;;22.00;21.30;;;;;;5026814;28;20486;-66
2023/08/24 02:28:48;;;;;;;14.83;11.10;;;22.00;21.40;;;;;;5027136;28;20467;-67
2023/08/24 02:31:16;;;;;;;14.10;11.47;;;22.00;21.60;;;;;;5025940;28;20834;-66
2023/08/24 02:33:42;;;;;;;15.10;13.20;;;22.00;21.60;;;;;;5023301;28;20978;-66
2023/08/24 02:36:10;;;;;;;14.43;12.30;;;22.00;21.90;;;;;;5026791;28;20537;-66
2023/08/24 02:38:37;;;;;;;13.83;11.27;;;21.90;21.90;;;;;;5026694;28;21041;-67
2023/08/24 02:41:05;;;;;;;13.20;11.90;;;21.80;21.80;;;;;;5027035;28;20467;-66
2023/08/24 02:43:31;;;;;;;15.50;12.13;;;21.80;21.90;;;;;;5023679;28;20466;-67
2023/08/24 02:46:02;;;;;;;15.20;11.67;;;21.80;21.90;;;;;;5023569;28;20541;-66
2023/08/24 02:48:29;;;;;;;13.00;11.60;;;21.80;22.20;;;;;;5026110;28;20550;-66
2023/08/24 02:50:57;;;;;;;12.20;10.60;;;21.80;21.90;;;;;;5023999;28;20463;-66
2023/08/24 02:53:25;;;;;;;11.87;10.67;;;21.80;21.80;;;;;;5021295;28;20478;-66
2023/08/24 02:55:52;;;;;;;12.83;11.37;;;21.80;22.00;;;;;;5022669;28;20483;-67
2023/08/24 02:58:19;;;;;;;13.60;12.30;;;21.80;21.90;;;;;;5024062;28;20970;-66
2023/08/24 03:00:46;;;;;;;19.73;12.90;;;21.80;22.20;;;;;;5025288;28;20477;-67
2023/08/24 03:03:14;;;;;;;14.43;11.33;;;21.70;22.20;;;;;;5025736;28;20458;-66
2023/08/24 03:05:41;;;;;;;12.60;11.30;;;21.70;22.10;;;;;;5025337;28;20482;-67
2023/08/24 03:08:07;;;;;;;14.73;11.33;;;21.60;22.10;;;;;;5024797;28;20943;-66
2023/08/24 03:10:37;;;;;;;14.93;13.33;;;21.60;22.10;;;;;;5024619;28;20463;-66
2023/08/24 03:13:04;;;;;;;13.27;11.33;;;21.50;22.10;;;;;;5028257;28;20980;-66
2023/08/24 03:15:31;;;;;;;12.67;11.40;;;21.50;22.10;;;;;;5025550;28;20463;-66
2023/08/24 03:17:58;;;;;;;12.60;11.30;;;21.50;22.20;;;;;;5026526;28;20558;-67
2023/08/24 03:20:24;;;;;;;14.07;12.57;;;21.50;22.30;;;;;;5026104;28;20473;-67
2023/08/24 03:22:51;;;;;;;13.17;11.87;;;21.40;22.30;;;;;;5025354;28;20474;-67
2023/08/24 03:25:18;;;;;;;16.73;12.70;;;21.40;22.60;;;;;;5028800;28;20997;-67
2023/08/24 03:27:47;;;;;;;13.90;11.30;;;21.30;22.70;;;;;;5027845;28;20489;-66
2023/08/24 03:30:14;;;;;;;13.00;11.60;;;21.30;23.50;;;;;;5027335;28;20467;-67
2023/08/24 03:32:41;;;;;;;17.30;11.67;;;21.30;22.90;;;;;;5025622;28;20850;-67
2023/08/24 03:35:09;;;;;;;14.50;13.00;;;21.30;22.90;;;;;;5026211;28;20463;-66
2023/08/24 03:37:35;;;;;;;13.30;10.93;;;21.20;22.70;;;;;;5027869;28;20475;-66
2023/08/24 03:40:04;;;;;;;13.00;11.70;;;21.20;22.90;;;;;;5026485;28;20469;-66
2023/08/24 03:42:31;;;;;;;12.60;11.30;;;21.20;22.90;;;;;;5028633;28;20466;-67
2023/08/24 03:45:00;;;;;;;12.50;11.20;;;21.20;23.10;;;;;;5028627;28;20462;-67
2023/08/24 03:47:27;;;;;;;14.07;12.53;;;21.20;23.00;;;;;;5028489;28;20482;-66
2023/08/24 03:49:54;;;;;;;13.60;11.40;;;21.10;23.10;;;;;;5025495;28;21257;-66
2023/08/24 03:52:21;;;;;;;14.13;12.60;;;21.10;23.20;;;;;;5025683;28;20463;-66
2023/08/24 03:54:48;;;;;;;14.43;12.20;;;21.10;23.20;;;;;;5024785;28;20556;-66
2023/08/24 03:57:16;;;;;;;17.07;13.17;;;21.10;23.20;;;;;;5025666;28;20482;-66
2023/08/24 03:59:43;;;;;;;14.60;12.50;;;21.10;23.20;;;;;;5029074;28;20493;-67
2023/08/24 04:02:11;;;;;;;12.57;11.37;;;21.00;23.30;;;;;;5025636;28;21089;-67
2023/08/24 04:04:38;;;;;;;15.60;11.83;;;21.00;23.20;;;;;;5021201;28;20471;-66
2023/08/24 04:07:05;;;;;;;13.70;12.40;;;21.00;23.10;;;;;;5023515;28;20490;-66
2023/08/24 04:09:31;;;;;;;12.67;11.37;;;21.00;23.30;;;;;;5025010;28;20481;-65
2023/08/24 04:11:58;;;;;;;14.23;11.87;;;20.90;23.20;;;;;;5023666;28;20470;-65
2023/08/24 04:14:25;;;;;;;12.77;11.33;;;20.90;23.30;;;;;;5025750;28;20465;-65
2023/08/24 04:16:52;;;;;;;17.13;12.10;;;20.90;23.10;;;;;;5027583;28;21257;-66
2023/08/24 04:19:20;;;;;;;14.10;11.50;;;20.90;23.00;;;;;;5027300;28;20533;-65
2023/08/24 04:21:46;;;;;;;13.00;11.73;;;20.90;22.90;;;;;;5017300;28;20479;-66
2023/08/24 04:24:13;;;;;;;15.43;12.40;;;20.80;22.80;;;;;;5025737;28;20463;-65
2023/08/24 04:26:40;;;;;;;14.67;12.23;;;20.80;22.80;;;;;;5025275;28;20493;-65
2023/08/24 04:29:06;;;;;;;15.33;12.37;;;20.80;22.70;;;;;;5027271;28;20468;-65
2023/08/24 04:31:33;;;;;;;13.77;12.00;;;20.70;22.90;;;;;;5027539;28;20475;-65
2023/08/24 04:34:00;;;;;;;17.50;13.90;;;20.70;23.10;;;;;;5026301;28;20462;-66
2023/08/24 04:36:28;;;;;;;17.60;14.20;;;20.70;22.90;;;;;;5022236;28;20487;-66
2023/08/24 04:38:55;;;;;;;16.00;14.60;;;20.70;23.00;;;;;;5022199;28;20459;-65
2023/08/24 04:41:21;;;;;;;15.40;13.90;;;20.60;23.20;;;;;;5026758;28;20477;-65
2023/08/24 04:43:48;;;;;;;13.43;12.10;;;20.60;23.20;;;;;;5021136;28;20481;-67
2023/08/24 04:46:15;;;;;;;13.13;11.10;;;20.60;23.00;;;;;;5026484;28;20495;-66
2023/08/24 04:48:41;;;;;;;14.27;12.10;;;20.60;22.90;;;;;;5024597;28;23026;-66
2023/08/24 04:51:08;;;;;;;15.20;13.60;;;20.60;23.30;;;;;;5023670;28;20546;-66
2023/08/24 04:53:36;;;;;;;14.40;12.97;;;20.60;23.20;;;;;;5026839;28;20470;-66
2023/08/24 04:56:03;;;;;;;13.60;12.20;;;20.60;23.20;;;;;;5021700;28;20489;-66
2023/08/24 04:58:30;;;;;;;16.13;11.93;;;20.70;23.10;;;;;;5022852;28;20477;-65
2023/08/24 05:00:57;;;;;;;13.47;12.17;;;20.70;23.20;;;;;;5025138;28;20486;-65
2023/08/24 05:03:23;;;;;;;17.00;12.10;;;20.70;23.10;;;;;;5028333;28;20513;-66
2023/08/24 05:05:50;;;;;;;18.90;13.73;;;20.80;22.80;;;;;;5023946;28;20487;-66
2023/08/24 05:08:17;;;;;;;15.10;11.90;;;20.90;22.70;;;;;;5028203;28;20459;-66
2023/08/24 05:10:45;;;;;;;11.23;10.13;;;20.90;22.60;;;;;;5023511;28;20834;-66
2023/08/24 05:13:12;;;;;;;12.60;10.87;;;21.00;22.40;;;;;;5025842;28;20471;-66
2023/08/24 05:15:38;;;;;;;13.07;11.13;;;21.20;22.00;;;;;;5027118;28;20482;-66
2023/08/24 05:18:05;;;;;;;14.20;11.87;;;21.40;21.80;;;;;;5025230;28;20482;-66
2023/08/24 05:20:33;;;;;;;13.30;11.20;;;21.60;21.40;;;;;;5026295;28;20478;-65
2023/08/24 05:22:59;;;;;;;13.40;10.97;;;21.70;21.00;;;;;;5025340;28;20995;-65
2023/08/24 05:25:26;;;;;;;14.00;12.00;;;21.80;20.70;;;;;;5025535;28;20478;-65
2023/08/24 05:27:54;;;;;;;11.27;10.10;;;22.00;20.40;;;;;;5025169;28;20466;-73
2023/08/24 05:30:21;;;;;;;12.33;11.03;;;22.10;20.00;;;;;;5025436;28;20466;-74
2023/08/24 05:32:48;;;;;;;11.67;10.47;;;22.20;19.60;;;;;;5025464;28;20467;-74
2023/08/24 05:35:14;;;;;;;15.23;11.67;;;22.30;19.20;;;;;;5025444;28;20470;-74
2023/08/24 05:37:41;;;;;;;15.13;11.70;;;22.30;18.80;;;;;;5026461;28;20478;-74
2023/08/24 05:40:11;;;;;;;13.13;11.13;;;22.40;18.60;;;;;;5023759;28;20986;-74
2023/08/24 05:42:38;;;;;;;12.03;10.90;;;22.30;18.50;;;;;;5027111;28;20467;-72
2023/08/24 05:45:07;;;;;;;15.37;10.77;;;22.30;18.50;;;;;;5022096;28;20997;-68
2023/08/24 05:47:34;;;;;;;13.40;12.10;;;22.40;18.70;;;;;;5026285;28;20510;-75
2023/08/24 05:50:00;;;;;;;15.30;11.93;;;22.50;18.80;;;;;;5018843;28;20471;-73
2023/08/24 05:52:27;;;;;;;14.40;12.07;;;22.50;18.70;;;;;;5017440;28;20492;-72
2023/08/24 05:54:54;;;;;;;14.20;12.23;;;22.70;18.50;;;;;;5022664;28;20505;-72
2023/08/24 05:57:21;;;;;;;13.73;11.20;;;22.90;18.40;;;;;;5022566;28;20483;-72
2023/08/24 05:59:48;;;;;;;12.57;11.23;;;23.20;18.10;;;;;;5025191;28;20986;-72
2023/08/24 06:02:16;;;;;;;15.30;11.00;;;23.70;17.20;;;;;;5025638;28;20986;-73
2023/08/24 06:04:43;;;;;;;17.50;11.73;;;24.20;15.70;;;;;;5026004;28;20474;-73
2023/08/24 06:07:10;;;;;;;12.90;10.50;;;24.80;14.70;;;;;;5025009;28;20493;-72
2023/08/24 06:09:36;;;;;;;11.63;10.23;;;25.20;12.80;;;;;;5026190;28;21051;-72
2023/08/24 06:12:03;;;;;;;11.50;10.37;;;25.10;12.50;;;;;;5025250;28;20470;-72
2023/08/24 06:14:30;;;;;;;13.10;10.83;;;24.90;12.70;;;;;;5024876;28;20740;-72
2023/08/24 06:16:57;;;;;;;12.00;10.80;;;24.80;12.90;;;;;;5029291;28;20490;-72
2023/08/24 06:19:25;;;;;;;11.20;9.87;;;24.70;13.30;;;;;;5025796;28;20486;-72
2023/08/24 06:21:52;;;;;;;11.83;10.70;;;24.70;13.60;;;;;;5027142;28;20471;-71
2023/08/24 06:24:18;;;;;;;16.70;10.73;;;24.70;13.70;;;;;;5024205;28;21148;-71
2023/08/24 06:26:45;;;;;;;13.13;10.60;;;24.80;13.50;;;;;;5027129;28;20601;-71
2023/08/24 06:29:12;;;;;;;12.20;10.90;;;25.00;13.20;;;;;;5024183;28;20463;-72
2023/08/24 06:31:38;;;;;;;11.63;9.70;;;26.30;12.10;;;;;;5028886;28;20471;-72
2023/08/24 06:34:05;;;;;;;10.97;9.70;;;28.50;7.90;;;;;;5026402;28;20488;-72
2023/08/24 06:36:33;;;;;;;9.37;8.43;;;30.40;3.10;;;;;;5010303;28;20491;-72
2023/08/24 06:39:00;;;;;;;9.80;8.80;;;31.90;1.00;;;;;;5025049;28;20473;-71
2023/08/24 06:41:26;;;;;;;13.87;8.20;;;33.40;1.00;;;;;;5027372;28;20825;-73
2023/08/24 06:43:55;;;;;;;11.40;8.37;;;34.80;1.00;;;;;;5026936;28;20837;-72
2023/08/24 06:46:22;;;;;;;9.70;8.03;;;36.10;1.00;;;;;;5028508;28;20483;-72
2023/08/24 06:48:48;;;;;;;12.00;7.70;;;37.30;1.00;;;;;;5030215;28;20484;-72
2023/08/24 06:51:16;;;;;;;8.83;7.83;;;38.00;1.00;;;;;;5030228;28;20572;-73
2023/08/24 06:53:46;;;;;;;9.20;8.40;;;38.80;1.00;;;;;;5028505;28;20466;-73
2023/08/24 06:56:14;;;;;;;9.57;8.67;;;39.60;1.00;;;;;;5029690;28;20491;-72
2023/08/24 06:58:41;;;;;;;9.70;7.03;;;40.50;1.00;;;;;;5028842;28;20506;-72
2023/08/24 07:01:08;;;;;;;8.60;7.80;;;41.00;1.00;;;;;;5029655;28;20466;-73
2023/08/24 07:03:34;;;;;;;8.27;7.20;;;41.60;1.00;;;;;;5030323;28;20462;-73
2023/08/24 07:06:02;;;;;;;9.10;6.93;;;41.70;1.00;;;;;;5029156;28;20494;-73
2023/08/24 07:08:29;;;;;;;8.37;6.90;;;42.40;1.00;;;;;;5017612;28;20471;-73
2023/08/24 07:10:57;;;;;;;8.30;7.00;;;43.20;1.00;;;;;;5030749;28;20467;-73
2023/08/24 07:13:24;;;;;;;7.43;6.60;;;44.00;1.00;;;;;;5030424;28;20463;-73
2023/08/24 07:15:51;;;;;;;6.67;5.93;;;44.70;1.00;;;;;;5029829;28;20493;-68
2023/08/24 07:18:17;;;;;;;9.60;6.30;;;45.20;1.00;;;;;;5029232;28;20483;-67
2023/08/24 07:20:44;;;;;;;10.33;7.20;;;45.40;1.00;;;;;;5028985;28;20552;-68
2023/08/24 07:23:11;;;;;;;8.47;7.37;;;46.00;1.00;;;;;;5022405;28;20494;-68
2023/08/24 07:25:38;;;;;;;8.87;6.77;;;46.30;1.00;;;;;;5028190;28;20487;-67
2023/08/24 07:28:07;;;;;;;9.63;7.40;;;44.90;1.00;;;;;;5029298;28;20489;-67
2023/08/24 07:30:33;;;;;;;12.00;7.40;;;43.50;1.00;;;;;;5027745;28;20554;-67
2023/08/24 07:33:00;;;;;;;8.03;6.93;;;42.10;1.00;;;;;;5028305;28;20840;-67
2023/08/24 07:35:27;;;;;;;10.50;7.73;;;40.70;1.00;;;;;;5021907;28;20478;-68
2023/08/24 07:37:54;;;;;;;10.17;7.63;;;39.20;1.00;;;;;;5021616;28;20479;-68
2023/08/24 07:40:21;;;;;;;10.87;7.57;;;37.70;1.00;;;;;;5026176;28;20558;-68
2023/08/24 07:42:50;;;;;;;14.50;7.87;;;36.20;1.00;;;;;;5026312;28;20479;-67
2023/08/24 07:45:19;;;;;;;8.67;7.47;;;35.00;1.00;;;;;;5029812;28;20466;-67
2023/08/24 07:47:45;;;;;;;10.33;8.40;;;34.10;1.00;;;;;;5029316;28;20475;-67
2023/08/24 07:50:12;;;;;;;9.57;8.57;;;33.30;1.00;;;;;;5023501;28;20470;-67
2023/08/24 07:52:40;;;;;;;9.40;8.40;;;32.70;1.00;;;;;;5028324;28;20483;-67
2023/08/24 07:55:08;;;;;;;10.63;8.57;;;32.20;1.00;;;;;;5029253;28;20467;-67
2023/08/24 07:57:35;;;;;;;10.87;8.97;;;31.80;1.00;;;;;;5025960;28;20483;-67
2023/08/24 08:00:02;;;;;;;9.63;8.63;;;31.50;1.00;;;;;;5028725;28;20462;-67
2023/08/24 08:02:32;;;;;;;9.07;8.17;;;31.60;1.00;;;;;;5022528;28;20475;-67
2023/08/24 08:04:59;;;;;;;12.13;9.40;;;31.70;1.00;;;;;;5025610;28;20463;-67
2023/08/24 08:07:26;;;;;;;11.33;8.80;;;31.80;1.00;;;;;;5028204;28;21024;-67
2023/08/24 08:09:52;;;;;;;9.70;8.70;;;31.80;1.00;;;;;;5028145;28;20474;-67
2023/08/24 08:12:19;;;;;;;12.47;8.53;;;31.80;1.00;;;;;;5026573;28;20507;-68
2023/08/24 08:14:46;;;;;;;10.23;7.47;;;33.60;1.00;;;;;;5021402;28;20986;-68
2023/08/24 08:17:13;;;;;;;10.10;7.53;;;35.20;1.00;;;;;;5021822;28;20846;-68
2023/08/24 08:19:41;;;;;;;9.43;7.40;;;37.30;1.00;;;;;;5026270;28;20984;-68
2023/08/24 08:22:08;;;;;;;9.57;8.67;;;37.70;1.00;;;;;;5026684;28;20463;-68
2023/08/24 08:24:34;;;;;;;12.43;7.77;;;37.20;1.00;;;;;;5025362;28;20466;-69
2023/08/24 08:27:02;;;;;;;11.40;8.60;;;36.50;1.00;;;;;;5026785;28;20490;-68
2023/08/24 08:29:29;;;;;;;16.60;8.63;;;36.10;1.00;;;;;;5025355;28;20509;-68
2023/08/24 08:31:56;;;;;;;16.90;8.10;;;35.90;1.00;;;;;;5027195;28;20496;-69
2023/08/24 08:34:23;;;;;;;11.13;8.80;;;36.00;1.00;;;;;;5022591;28;20463;-69
2023/08/24 08:36:51;;;;;;;13.93;8.90;;;37.00;1.00;;;;;;5026079;28;20494;-70
2023/08/24 08:39:18;;;;;;;10.77;8.93;;;39.90;1.00;;;;;;5029644;28;20478;-70
2023/08/24 08:41:46;;;;;;;10.10;8.20;;;42.60;1.00;;;;;;5026238;28;20467;-67
2023/08/24 08:44:14;;;;;;;12.67;6.97;;;44.80;1.00;;;;;;5025293;28;20486;-69
2023/08/24 08:49:15;;;;;;;8.63;7.30;;;47.90;1.00;;;;;;5010748;23;20698;-69
2023/08/24 08:51:42;;;;;;;8.40;7.03;;;48.80;1.00;;;;;;4997201;28;20545;-68
2023/08/24 08:54:10;;;;;;;8.80;7.07;;;49.40;1.00;;;;;;5005567;28;20474;-68
2023/08/24 08:56:37;;;;;;;7.00;6.30;;;50.20;1.00;;;;;;5005852;28;20467;-70
2023/08/24 08:59:08;;;;;;;8.90;6.70;;;51.10;1.00;;;;;;5005514;28;20496;-66
2023/08/24 09:01:35;;;;;;;7.20;5.93;;;52.00;1.00;;;;;;5001118;28;20487;-66
2023/08/24 09:04:02;;;;;;;6.97;6.23;;;52.70;1.00;;;;;;5002908;28;20467;-67
2023/08/24 09:06:29;;;;;;;9.20;6.80;;;53.20;1.00;;;;;;5009851;28;21037;-68
2023/08/24 09:08:57;;;;;;;9.70;6.70;;;53.30;1.00;;;;;;5003874;28;20460;-68
2023/08/24 09:11:25;;;;;;;8.03;6.70;;;52.10;1.00;;;;;;5006513;28;20999;-68
2023/08/24 09:13:52;;;;;;;8.20;6.27;;;51.80;1.00;;;;;;4997610;28;20475;-68
2023/08/24 09:16:19;;;;;;;8.13;6.03;;;52.30;1.00;;;;;;5003350;28;20467;-68
2023/08/24 09:18:47;;;;;;;7.00;5.83;;;53.20;1.00;;;;;;5005312;28;20488;-67
2023/08/24 09:21:15;;;;;;;6.97;5.40;;;54.00;1.00;;;;;;5003007;28;20853;-68
2023/08/24 09:23:46;;;;;;;11.47;6.00;;;54.70;1.00;;;;;;5002231;28;20471;-68
2023/08/24 09:26:12;;;;;;;6.33;5.67;;;55.10;1.00;;;;;;5001770;28;20549;-69
2023/08/24 09:28:44;;;;;;;8.33;5.67;;;55.70;1.00;;;;;;5002037;28;20483;-68
2023/08/24 09:31:13;;;;;;;6.00;5.03;;;55.90;1.00;;;;;;5000071;28;20472;-67
2023/08/24 09:33:39;;;;;;;8.50;6.50;;;55.60;1.00;;;;;;5007598;28;20560;-69
2023/08/24 09:36:07;;;;;;;7.10;6.33;;;54.70;1.00;;;;;;5002946;28;20474;-70
2023/08/24 09:38:35;;;;;;;6.50;5.63;;;54.20;1.00;;;;;;5003980;28;20519;-69
2023/08/24 09:41:02;;;;;;;6.77;5.80;;;53.00;1.00;;;;;;5000524;28;20484;-68
2023/08/24 09:43:31;;;;;;;12.13;6.00;;;53.40;1.00;;;;;;5002639;28;20464;-67
2023/08/24 09:46:00;;;;;;;7.13;5.67;;;54.50;1.00;;;;;;5004197;28;20472;-68
2023/08/24 09:48:26;;;;;;;8.07;6.00;;;55.50;1.00;;;;;;4999602;28;20480;-69
2023/08/24 09:50:53;;;;;;;8.50;5.60;;;56.10;1.00;;;;;;5000105;28;20235;-68
2023/08/24 09:53:21;;;;;;;9.40;6.10;;;56.90;1.00;;;;;;5001300;28;20207;-68
2023/08/24 09:55:54;;;;;;;6.85;5.55;;;57.40;1.00;;;;;;5003952;28;20661;-68
2023/08/24 09:58:21;;;;;;;7.90;5.72;;;57.70;1.00;;;;;;4999068;28;20259;-69
2023/08/24 10:00:48;;;;;;;6.93;5.40;;;57.80;1.00;;;;;;5000886;28;20700;-69
2023/08/24 10:03:20;;;;;;;7.40;5.32;;;58.10;1.00;;;;;;5003737;28;20216;-67
2023/08/24 10:05:52;;;;;;;8.23;5.75;;;58.40;1.00;;;;;;4977666;28;20209;-70
2023/08/24 10:08:22;;;;;;;7.90;5.25;;;58.30;1.00;;;;;;4871310;28;20322;-69
2023/08/24 10:10:52;;;;;;;9.43;5.47;;;58.40;1.00;;;;;;4980533;28;20311;-70
2023/08/24 10:13:24;;;;;;;7.07;5.82;;;58.60;1.00;;;;;;4984978;28;20204;-68
2023/08/24 10:15:51;;;;;;;7.25;5.60;;;58.60;1.00;;;;;;4989406;28;20213;-70
2023/08/24 10:18:20;;;;;;;7.78;5.55;;;58.80;1.00;;;;;;4985185;28;20229;-67
2023/08/24 10:20:47;;;;;;;8.07;5.88;;;58.30;1.00;;;;;;4978617;28;20225;-68
2023/08/24 10:23:16;;;;;;;8.10;5.07;;;58.30;1.00;;;;;;4984053;28;20213;-70
2023/08/24 10:25:44;;;;;;;6.57;5.03;;;58.30;1.00;;;;;;4985422;28;20582;-70
2023/08/24 10:28:12;;;;;;;7.40;5.88;;;58.20;1.00;;;;;;4984404;28;20615;-68
2023/08/24 10:30:40;;;;;;;8.15;5.88;;;57.20;1.00;;;;;;4978741;28;20229;-69
2023/08/24 10:33:07;;;;;;;7.65;5.63;;;56.90;1.00;;;;;;4985232;28;21586;-70
2023/08/24 10:35:35;;;;;;;6.22;5.15;;;56.70;1.00;;;;;;4985699;28;20552;-68
2023/08/24 10:38:03;;;;;;;6.80;5.00;;;56.30;1.00;;;;;;4989040;28;20208;-69
2023/08/24 10:40:33;;;;;;;6.63;5.70;;;56.10;1.00;;;;;;4980948;28;20596;-69
2023/08/24 10:43:04;;;;;;;10.57;6.00;;;56.20;1.00;;;;;;4986950;28;20256;-69
2023/08/24 10:45:55;;;;;;;6.93;5.77;;;55.50;1.00;;;;;;4990084;28;20980;-69
2023/08/24 10:48:23;;;;;;;9.07;6.47;;;54.20;1.00;;;;;;4983744;28;20519;-69
2023/08/24 10:51:19;;;;;;;7.40;6.10;;;52.40;1.00;;;;;;4986262;28;20484;-67
2023/08/24 10:53:47;;;;;;;12.73;7.17;;;50.60;1.00;;;;;;4975013;28;20476;-70
2023/08/24 10:56:15;;;;;;;8.40;5.80;;;48.70;1.00;;;;;;4983453;28;20468;-67
2023/08/24 10:58:42;;;;;;;7.80;6.50;;;47.20;1.00;;;;;;4986717;28;20464;-69
2023/08/24 11:01:14;;;;;;;9.23;6.50;;;45.90;1.00;;;;;;4984169;28;20481;-69
2023/08/24 11:03:42;;;;;;;7.60;6.80;;;44.90;1.00;;;;;;4983349;28;20461;-68
2023/08/24 11:06:21;;;;;;;7.93;6.43;;;43.80;1.00;;;;;;4978631;28;20821;-70
2023/08/24 11:08:49;;;;;;;12.60;7.30;;;42.70;1.00;;;;;;4994395;23;20494;-69
2023/08/24 11:11:20;;;;;;;9.97;6.70;;;41.60;1.00;;;;;;4998385;28;20464;-70
2023/08/24 11:14:15;;;;;;;10.53;7.47;;;40.90;1.00;;;;;;5002758;28;20468;-67
2023/08/24 11:16:43;;;;;;;9.43;6.40;;;40.40;1.00;;;;;;5000222;28;20526;-67
2023/08/24 11:19:12;;;;;;;7.70;6.90;;;40.10;1.00;;;;;;5003150;28;20494;-68
2023/08/24 11:21:41;;;;;;;8.60;6.90;;;39.60;1.00;;;;;;5002925;28;20464;-69
2023/08/24 11:24:10;;;;;;;8.43;7.13;;;39.30;1.00;;;;;;4999537;28;20460;-70
2023/08/24 11:26:41;;;;;;;10.60;7.30;;;38.60;1.00;;;;;;5001585;28;20463;-68
2023/08/24 11:29:08;;;;;;;11.10;7.00;;;38.10;1.00;;;;;;5002310;28;20538;-68
2023/08/24 11:31:35;;;;;;;12.00;7.60;;;37.70;1.00;;;;;;5002366;28;20483;-69
2023/08/24 11:34:02;;;;;;;10.93;8.50;;;37.40;1.00;;;;;;5005529;28;20491;-68
2023/08/24 11:36:29;;;;;;;14.83;8.47;;;37.10;1.00;;;;;;5001784;28;20467;-66
2023/08/24 11:38:59;;;;;;;8.67;7.77;;;36.80;1.00;;;;;;5005579;28;20483;-66
2023/08/24 11:41:27;;;;;;;11.70;8.40;;;36.60;1.00;;;;;;5006912;28;20509;-67
2023/08/24 11:44:01;;;;;;;9.30;7.60;;;36.50;1.00;;;;;;5007241;28;20498;-68
2023/08/24 11:46:30;;;;;;;9.83;7.87;;;36.40;1.00;;;;;;5005440;28;20463;-67
2023/08/24 11:48:58;;;;;;;8.80;7.20;;;36.30;1.00;;;;;;5005077;28;20491;-67
2023/08/24 11:51:25;;;;;;;8.50;7.10;;;36.30;1.00;;;;;;5000421;28;20514;-67
2023/08/24 11:53:53;;;;;;;11.63;8.10;;;36.20;1.00;;;;;;5008181;28;20464;-67
2023/08/24 11:56:21;;;;;;;10.37;8.43;;;36.00;1.00;;;;;;5008331;28;20468;-66
2023/08/24 11:58:51;;;;;;;10.10;7.90;;;35.80;1.00;;;;;;5005974;28;20483;-67
2023/08/24 12:01:18;;;;;;;10.10;7.70;;;35.70;1.00;;;;;;5002131;28;20534;-67
2023/08/24 12:03:45;;;;;;;8.77;7.37;;;35.60;1.00;;;;;;4995561;28;20468;-66
2023/08/24 12:06:12;;;;;;;11.00;7.60;;;35.60;1.00;;;;;;5008500;28;20605;-70
2023/08/24 12:08:40;;;;;;;8.87;7.80;;;35.50;1.00;;;;;;5008103;28;20990;-66
2023/08/24 12:11:12;;;;;;;10.37;7.37;;;35.50;1.00;;;;;;5003279;28;20472;-66
2023/08/24 12:13:44;;;;;;;10.80;7.67;;;35.50;1.00;;;;;;5001989;28;20965;-67
2023/08/24 12:16:11;;;;;;;9.20;7.60;;;35.40;1.00;;;;;;5005228;28;21022;-67
2023/08/24 12:18:48;;;;;;;7.77;6.53;;;35.40;1.00;;;;;;5005413;28;20492;-66
2023/08/24 12:21:15;;;;;;;11.07;7.03;;;35.40;1.00;;;;;;5008330;28;20852;-67
2023/08/24 12:23:42;;;;;;;8.47;7.03;;;35.40;1.00;;;;;;5004228;28;20471;-66
2023/08/24 12:26:08;;;;;;;10.20;7.87;;;35.40;1.00;;;;;;5003874;28;20481;-66
2023/08/24 12:28:35;;;;;;;8.03;6.40;;;35.20;1.00;;;;;;5005819;28;20529;-68
2023/08/24 12:31:03;;;;;;;8.30;7.17;;;35.00;1.00;;;;;;5004902;28;20538;-66
2023/08/24 12:33:32;;;;;;;9.10;7.10;;;34.90;1.00;;;;;;5004128;28;20503;-66
2023/08/24 12:35:59;;;;;;;9.67;7.00;;;34.90;1.00;;;;;;5009052;28;20467;-66
2023/08/24 12:38:27;;;;;;;11.90;7.07;;;34.90;1.00;;;;;;5007210;28;20530;-66
2023/08/24 12:40:54;;;;;;;8.93;7.00;;;34.90;1.00;;;;;;5009122;28;20464;-66
2023/08/24 12:43:21;;;;;;;10.97;6.90;;;34.80;1.00;;;;;;5005563;28;20583;-65
2023/08/24 12:45:48;;;;;;;7.90;6.30;;;34.70;1.00;;;;;;5005042;28;20469;-66